Flight Track Log - Related Links

Times and Time Zones

All times are in EDT time to prevent confusion due to time zone crossing. See the N770NC flight status page for this flight to view local times or setup timezone preferences in your user account.

Time Position Orientation Groundspeed Altitude Reporting Facility
EDT Latitude Longitude Course Direction KTS MPH feet Rate Location/Type
Mon 12:36:20 PM 34.5564 -86.7536 90° East 198 228 2,900  Level Memphis Center
Mon 12:37:20 PM 34.5108 -86.6925 132° Southeast 219 252 4,400 1,900 Climbing Memphis Center
Mon 12:38:00 PM 34.5238 -86.3999 109° East  Level FlightAware Approximate
Mon 12:38:20 PM 34.4933 -86.5950 102° East 254 292 6,700  Level Memphis Center
Mon 12:39:00 PM 34.4975 -86.3075 108° East  Level FlightAware Approximate
Mon 12:39:32 PM 34.4736 -86.4753 101° East 357 411 9,100  Level Atlanta Center
Mon 12:40:00 PM 34.4722 -86.2147 108° East  Level FlightAware Approximate
Mon 12:40:32 PM 34.4547 -86.3639 102° East 351 404 10,400  Level Atlanta Center
Mon 12:41:00 PM 34.4500 -86.1214 90° East  Level FlightAware Approximate
Mon 12:41:32 PM 34.4361 -86.2475 101° East 346 398 12,300  Level Atlanta Center
Mon 12:42:32 PM 34.4047 -86.1258 107° East 359 413 13,600 2,000 Climbing Atlanta Center
Mon 12:43:32 PM 34.3797 -86.0019 104° East 373 429 16,300 1,950 Climbing Atlanta Center
Mon 12:44:32 PM 34.3564 -85.8831 103° East 373 429 17,500 1,300 Climbing Atlanta Center
Mon 12:45:32 PM 34.3250 -85.7492 106° East 373 429 18,900 500 Climbing Atlanta Center
Mon 12:46:32 PM 34.2892 -85.6278 110° East 379 436 18,500 -1,050 Descending Atlanta Center
Mon 12:47:32 PM 34.2489 -85.5014 111° Southeast 394 453 16,800 -1,250 Descending Atlanta Center
Mon 12:48:32 PM 34.2231 -85.3803 104° East 379 436 16,000 -400 Descending Atlanta Center
Mon 12:49:32 PM 34.2033 -85.2694 102° East 349 402 16,000  Level Atlanta Center
Mon 12:50:32 PM 34.1856 -85.1664 102° East 343 395 16,000  Level Atlanta Center
Mon 12:51:32 PM 34.1425 -85.0856 123° Southeast 326 375 16,000 -350 Level Atlanta Center
Mon 12:52:32 PM 34.0697 -85.0619 165° South 250 288 15,300 -850 Descending Atlanta Center
Mon 12:53:32 PM 34.0350 -84.9614 113° Southeast 281 323 14,300 -650 Descending Atlanta Center
Mon 12:54:32 PM 33.9878 -84.8681 121° Southeast 318 366 14,000 -350 Descending Atlanta Center
Mon 12:55:32 PM 33.9319 -84.7850 129° Southeast 326 375 13,600 -650 Descending Atlanta Center
Mon 12:56:32 PM 33.8656 -84.7092 137° Southeast 326 375 12,700 -988 Descending Atlanta Center
Mon 12:56:57 PM 33.8333 -84.6667 132° Southeast 324 373 12,200 -396 Descending Atlanta TRACON
Mon 12:58:03 PM 33.7667 -84.5833 134° Southeast 290 334 12,100 -750 Descending Atlanta TRACON
Mon 12:58:57 PM 33.7667 -84.5000 90° East 285 328 10,700 -1,684 Descending Atlanta TRACON
Mon 12:59:57 PM 33.7500 -84.4167 104° East 285 328 8,900 -1,737 Descending Atlanta TRACON
Mon 01:00:51 PM 33.7500 -84.3333 90° East 272 313 7,400 -1,600 Descending Atlanta TRACON
Mon 01:01:57 PM 33.7500 -84.2333 90° East 266 306 5,700 -1,100 Descending Atlanta TRACON
Mon 01:02:51 PM 33.7500 -84.1500 90° East 250 288 5,200 -350 Descending Atlanta TRACON
Mon 01:03:57 PM 33.7500 -84.0667 90° East 227 261 5,000 -100 Descending Atlanta TRACON
Mon 01:04:51 PM 33.7333 -84.0000 107° East 218 251 5,000  Level Atlanta TRACON
Mon 01:05:51 PM 33.6833 -83.9833 255° West 196 226 5,000  Level Atlanta TRACON
Mon 01:06:00 PM 33.7082 -84.1118 255° West  Level Estimated
Mon 01:06:51 PM 33.6500 -84.0333 231° Southwest 186 214 5,000  Level Atlanta TRACON
Mon 01:07:51 PM 33.6500 -84.0833 270° West 191 220 5,000 -50 Level Atlanta TRACON
Mon 01:08:51 PM 33.6500 -84.1500 270° West 198 228 4,900 -100 Descending Atlanta TRACON

Login

Don't have an account? Register now (free) for customized features, flight alerts, and more!